Portada
METAR-TAF:

METAR-TAF

Aeroports :

Ranong, Tailàndia

latitud: 09-59N, longitud: 098-37E, altitud: 7 m

Observació

L'informe es va fer fa 40 minuts, a les 07:00 UTC
Vent 5 kt del Sud-Oest, variant entre Sud i Oest/Nord-Oest
Temperatura 31°C
Humitat 75%
Pressió 1008 hPa
Visibilitat 10 km o més
Cel ennuvolat a una alçada de 2000 ft

METAR: VTSR 150700Z 23005KT 190V300 9999 BKN020 31/26 Q1008 NOSIG

Hora: 14:40 (07:40 UTC)

Pronòstic

L'informe es va fer fa 2 hores i 40 minuts, a les 05:00 UTC
Pronòstic vàlid del 15 a les 06 UTC al 16 a les 06 UTC
Vent 8 kt del Oest/Sud-Oest
Visibilitat 10 km o més
Escasses núvols a una alçada de 2000 ft
Núvols disperses a una alçada de 10000 ft
Evolucionant progressivament
l' 15 a les 12 UTC al 15 a les 14 UTC
Vent kt del Nord
Evolucionant progressivament
l' 16 a les 04 UTC al 16 a les 06 UTC
Vent 6 kt del Oest/Sud-Oest

TAF: VTSR 150500Z 1506/1606 24008KT 9999 FEW020 SCT100 BECMG 1512/1514 00000KT BECMG 1604/1606 24006KT

Observacions i pronòstics meteorològics de més de 4000 aeroports (METAR i TAF).

Les estacions disponibles són els punts grocs i vermells al mapa.

Posi el ratolí al punt desitjat per veure el nom de l'estació.

Feu clic per veure les observacions i els pronòstics meteorològics.

Per canviar el mapa: feu clic els botons verds amb una creu de color negre per apropar; al botó verd amb un guió per allunyar la imatge; o en les fletxes verdes per a mapes adjacents.


METAR-TAF: